Wagner, Montana
Current Conditions -  °F | °C
As of 3:53 AM on Monday 22 Dec 2014 (Local Time) from KGGW Reporting Station
Overcast Overcast  
Wind Chill: 21°   Ceiling: 1500
Heat Index: 32°   Visibility: 10mi
Dew Point: 27°   Wind: 17mph
Humidity: 82%   Direction: 310°NW
Pressure: 29.58"   Gusts: 24mph
Location:  48.3131°N, 107.89°W
Report Text: KGGW 221053Z AUTO 31015G21KT 10SM OVC015 00/M03 A2958 RMK AO2 SLP040 T00001028
Loading
Personal Weather Stations






























Interactive Weather Map New forecast layout! Learn more

10-Day Weather Forecast

Advertisements
Track Severe Weather on mobile